createdAt,value
2022-12-23T00:00:42.113Z,99903.50
2022-12-23T00:03:10.621Z,99901.69
2022-12-23T00:05:39.905Z,99897.19
2022-12-23T00:08:08.480Z,99894.50
2022-12-23T00:10:39.005Z,99891.81
2022-12-23T00:13:40.636Z,99895.38
2022-12-23T00:16:11.402Z,99894.31
2022-12-23T00:18:40.187Z,99894.31
2022-12-23T00:21:10.694Z,99890.69
2022-12-23T00:23:41.232Z,99889.81
2022-12-23T00:26:14.424Z,99889.81
2022-12-23T00:28:43.940Z,99896.13
2022-12-23T00:31:12.732Z,99894.31
2022-12-23T00:33:42.366Z,99902.34
2022-12-23T00:36:15.411Z,99893.44
2022-12-23T00:39:01.167Z,99888.97
2022-12-23T00:41:46.827Z,99909.41
2022-12-23T00:44:16.261Z,99905.88
2022-12-23T00:46:44.385Z,99900.53
2022-12-23T00:49:30.693Z,99898.72
2022-12-23T00:51:58.853Z,99901.38
2022-12-23T00:54:27.267Z,99893.34
2022-12-23T00:56:55.398Z,99895.19
2022-12-23T00:59:24.834Z,99899.66
2022-12-23T01:02:10.377Z,99894.31
2022-12-23T01:04:56.058Z,99891.63
2022-12-23T01:07:24.277Z,99899.66
2022-12-23T01:09:52.361Z,99889.81
2022-12-23T01:12:20.457Z,99886.28
2022-12-23T01:14:49.897Z,99894.22
2022-12-23T01:17:18.007Z,99890.69
2022-12-23T01:19:46.114Z,99891.63
2022-12-23T01:22:14.181Z,99887.34
2022-12-23T01:24:42.332Z,99890.97
2022-12-23T01:27:10.421Z,99890.16
2022-12-23T01:29:38.490Z,99892.94
2022-12-23T01:32:08.113Z,99889.50
2022-12-23T01:34:37.452Z,99887.78
2022-12-23T01:37:05.910Z,99885.19
2022-12-23T01:39:34.081Z,99888.06
2022-12-23T01:42:19.832Z,99881.09
2022-12-23T01:44:54.809Z,99888.31
2022-12-23T01:47:28.956Z,99889.38
2022-12-23T01:50:00.284Z,99888.50
2022-12-23T01:52:28.891Z,99891.28
2022-12-23T01:54:57.316Z,99894.03
2022-12-23T01:57:25.789Z,99885.25
2022-12-23T02:00:11.246Z,99891.47
2022-12-23T02:03:00.835Z,99894.31
2022-12-23T02:05:29.251Z,99894.38
2022-12-23T02:08:15.205Z,99889.97
2022-12-23T02:10:58.365Z,99889.97
2022-12-23T02:13:32.843Z,99890.75
2022-12-23T02:16:18.086Z,99892.66
2022-12-23T02:19:01.536Z,99895.25
2022-12-23T02:21:39.803Z,99902.41
2022-12-23T02:24:49.303Z,99908.72
2022-12-23T02:27:20.664Z,99903.34
2022-12-23T02:30:30.357Z,99906.81
2022-12-23T02:33:36.447Z,99907.59
2022-12-23T02:36:12.490Z,99914.69
2022-12-23T02:38:47.072Z,99912.94
2022-12-23T02:41:21.179Z,99913.81
2022-12-23T02:43:52.731Z,99911.13
2022-12-23T02:46:23.925Z,99914.69
2022-12-23T02:48:56.251Z,99916.50
2022-12-23T02:51:29.622Z,99912.09
2022-12-23T02:54:00.501Z,99923.66
2022-12-23T02:56:29.845Z,99924.59
2022-12-23T02:59:00.845Z,99921.94
2022-12-23T03:01:30.419Z,99929.97
2022-12-23T03:04:00.469Z,99924.59
2022-12-23T03:06:32.626Z,99935.31
2022-12-23T03:09:01.623Z,99929.97
2022-12-23T03:11:40.366Z,99936.94
2022-12-23T03:14:25.662Z,99933.41
2022-12-23T03:16:58.722Z,99930.63
2022-12-23T03:19:33.092Z,99921.75
2022-12-23T03:22:08.287Z,99927.88
2022-12-23T03:24:40.824Z,99926.06
2022-12-23T03:27:12.340Z,99929.59
2022-12-23T03:29:44.868Z,99941.06
2022-12-23T03:32:15.624Z,99944.59
2022-12-23T03:34:48.598Z,99939.25
2022-12-23T03:37:19.508Z,99941.81
2022-12-23T03:39:50.892Z,99939.94
2022-12-23T03:42:22.117Z,99947.97
2022-12-23T03:45:27.989Z,99938.03
2022-12-23T03:47:45.291Z,99946.84
2022-12-23T03:50:16.535Z,99938.72
2022-12-23T03:52:50.343Z,99945.88
2022-12-23T03:55:22.027Z,99944.16
2022-12-23T03:57:53.545Z,99943.41
2022-12-23T04:00:21.635Z,99950.56
2022-12-23T04:02:58.968Z,99944.25
2022-12-23T04:05:31.384Z,99950.47
2022-12-23T04:08:03.489Z,99947.78
2022-12-23T04:10:32.363Z,99943.41
2022-12-23T04:13:00.526Z,99948.75
2022-12-23T04:15:28.973Z,99944.34
2022-12-23T04:17:58.969Z,99953.34
2022-12-23T04:20:28.401Z,99956.88
2022-12-23T04:22:56.463Z,99947.03
2022-12-23T04:25:24.541Z,99940.88
2022-12-23T04:27:52.613Z,99947.19
2022-12-23T04:30:20.694Z,99949.09
2022-12-23T04:32:48.777Z,99951.75
2022-12-23T04:35:16.929Z,99958.94
2022-12-23T04:37:46.356Z,99949.19
2022-12-23T04:40:14.723Z,99952.81
2022-12-23T04:42:42.781Z,99943.91
2022-12-23T04:45:11.744Z,99958.25
2022-12-23T04:47:40.645Z,99965.50
2022-12-23T04:50:14.384Z,99952.22
2022-12-23T04:52:42.539Z,99962.06
2022-12-23T04:55:12.613Z,99960.31
2022-12-23T04:57:40.799Z,99970.16
2022-12-23T05:00:10.086Z,99962.06
2022-12-23T05:02:38.304Z,99971.00
2022-12-23T05:05:07.186Z,99967.56
2022-12-23T05:07:35.306Z,99969.47
2022-12-23T05:10:03.479Z,99976.63
2022-12-23T05:12:33.115Z,99975.91
2022-12-23T05:15:01.380Z,99983.09
2022-12-23T05:17:29.430Z,99978.78
2022-12-23T05:19:57.459Z,99983.41
2022-12-23T05:22:25.553Z,99999.53
2022-12-23T05:24:53.649Z,99993.50
2022-12-23T05:27:21.718Z,99991.88
2022-12-23T05:29:51.139Z,100008.03
2022-12-23T05:32:19.169Z,99997.38
2022-12-23T05:34:47.266Z,100004.53
2022-12-23T05:37:15.304Z,99998.34
2022-12-23T05:39:43.358Z,100002.91
2022-12-23T05:42:11.427Z,100005.56
2022-12-23T05:44:39.470Z,100006.53
2022-12-23T05:47:08.881Z,100004.72
2022-12-23T05:49:36.930Z,100017.22
2022-12-23T05:52:05.207Z,100017.22
2022-12-23T05:54:33.263Z,100011.78
2022-12-23T05:57:01.331Z,100021.53
2022-12-23T05:59:31.638Z,100018.78
2022-12-23T06:02:00.253Z,100013.38
2022-12-23T06:04:29.988Z,100015.00
2022-12-23T06:06:58.216Z,100021.91
2022-12-23T06:09:26.336Z,100018.28
2022-12-23T06:11:54.401Z,100026.13
2022-12-23T06:14:28.397Z,100034.00
2022-12-23T06:16:57.059Z,100027.59
2022-12-23T06:19:25.567Z,100030.22
2022-12-23T06:21:55.004Z,100028.31
2022-12-23T06:24:23.370Z,100026.41
2022-12-23T06:26:56.843Z,100031.78
2022-12-23T06:29:25.627Z,100036.16
2022-12-23T06:31:53.802Z,100047.66
2022-12-23T06:34:21.926Z,100044.91
2022-12-23T06:36:50.024Z,100052.94
2022-12-23T06:39:20.273Z,100046.63
2022-12-23T06:41:48.383Z,100047.50
2022-12-23T06:44:16.470Z,100045.59
2022-12-23T06:46:44.542Z,100045.50
2022-12-23T06:49:13.738Z,100045.50
2022-12-23T06:51:42.197Z,100065.94
2022-12-23T06:54:11.331Z,100060.59
2022-12-23T06:56:40.798Z,100058.78
2022-12-23T06:59:08.868Z,100055.16
2022-12-23T07:01:37.129Z,100056.88
2022-12-23T07:04:05.571Z,100063.19
2022-12-23T07:06:33.715Z,100076.56
2022-12-23T07:09:01.769Z,100072.25
2022-12-23T07:11:30.015Z,100079.50
2022-12-23T07:14:00.407Z,100077.78
2022-12-23T07:16:28.501Z,100075.09
2022-12-23T07:18:56.581Z,100083.91
2022-12-23T07:21:28.978Z,100084.78
2022-12-23T07:23:58.049Z,100093.75
2022-12-23T07:26:27.012Z,100098.25
2022-12-23T07:28:55.115Z,100103.59
2022-12-23T07:31:24.594Z,100099.09
2022-12-23T07:33:52.740Z,100099.09
2022-12-23T07:36:20.816Z,100087.44
2022-12-23T07:38:51.276Z,100093.66
2022-12-23T07:41:19.363Z,100088.22
2022-12-23T07:43:47.556Z,100090.91
2022-12-23T07:46:15.749Z,100093.56
2022-12-23T07:48:45.470Z,100094.44
2022-12-23T07:51:13.519Z,100104.28
2022-12-23T07:53:41.614Z,100120.31
2022-12-23T07:56:09.754Z,100125.78
2022-12-23T07:58:37.853Z,100131.13
2022-12-23T08:01:08.911Z,100131.31
2022-12-23T08:03:37.735Z,100134.16
2022-12-23T08:06:08.921Z,100150.34
2022-12-23T08:08:37.043Z,100158.63
2022-12-23T08:11:07.254Z,100165.94
2022-12-23T08:13:37.140Z,100176.84
2022-12-23T08:16:06.421Z,100183.06
2022-12-23T08:18:36.217Z,100187.63
2022-12-23T08:21:06.072Z,100176.84
2022-12-23T08:23:35.635Z,100183.94
2022-12-23T08:26:05.277Z,100180.47
2022-12-23T08:28:34.185Z,100183.31
2022-12-23T08:31:07.779Z,100177.19
2022-12-23T08:33:38.139Z,100181.84
2022-12-23T08:36:08.015Z,100183.97
2022-12-23T08:38:38.107Z,100185.94
2022-12-23T08:41:09.980Z,100183.44
2022-12-23T08:43:38.241Z,100182.72
2022-12-23T08:46:07.214Z,100188.22
2022-12-23T08:48:36.429Z,100186.34
2022-12-23T08:51:06.058Z,100182.72
2022-12-23T08:53:35.071Z,100184.44
2022-12-23T08:56:05.682Z,100187.03
2022-12-23T08:58:36.896Z,100189.56
2022-12-23T09:01:05.660Z,100192.06
2022-12-23T09:03:34.485Z,100200.78
2022-12-23T09:06:05.931Z,100192.06
2022-12-23T09:08:34.146Z,100204.59
2022-12-23T09:11:02.281Z,100196.47
2022-12-23T09:13:35.711Z,100212.53
2022-12-23T09:16:04.313Z,100210.63
2022-12-23T09:18:32.588Z,100205.09
2022-12-23T09:21:01.351Z,100208.66
2022-12-23T09:23:29.488Z,100218.47
2022-12-23T09:25:57.875Z,100207.88
2022-12-23T09:28:26.415Z,100208.66
2022-12-23T09:30:55.887Z,100207.66
2022-12-23T09:33:24.173Z,100209.28
2022-12-23T09:35:52.240Z,100209.91
2022-12-23T09:38:20.310Z,100216.66
2022-12-23T09:40:48.389Z,100224.56
2022-12-23T09:43:27.235Z,100220.94
2022-12-23T09:46:05.802Z,100218.09
2022-12-23T09:48:36.884Z,100215.97
2022-12-23T09:51:06.442Z,100216.47
2022-12-23T09:53:46.807Z,100223.25
2022-12-23T09:56:19.438Z,100219.22
2022-12-23T09:58:52.217Z,100222.19
2022-12-23T10:01:25.811Z,100226.94
2022-12-23T10:04:11.229Z,100230.66
2022-12-23T10:06:39.774Z,100223.84
2022-12-23T10:09:09.850Z,100213.56
2022-12-23T10:11:41.045Z,100218.94
2022-12-23T10:14:15.776Z,100221.59
2022-12-23T10:16:48.271Z,100227.91
2022-12-23T10:19:20.388Z,100239.41
2022-12-23T10:21:51.451Z,100232.13
2022-12-23T10:24:22.695Z,100215.66
2022-12-23T10:26:54.213Z,100220.53
2022-12-23T10:29:24.050Z,100218.50
2022-12-23T10:32:05.000Z,100219.06
2022-12-23T10:34:42.308Z,100210.84
2022-12-23T10:37:15.709Z,100195.56
2022-12-23T10:39:50.584Z,100195.47
2022-12-23T10:42:25.984Z,100199.78
2022-12-23T10:45:32.454Z,100205.47
2022-12-23T10:48:14.218Z,100195.06
2022-12-23T10:50:58.223Z,100192.78
2022-12-23T10:53:36.730Z,100196.00
2022-12-23T10:56:06.483Z,100199.34
2022-12-23T10:58:37.716Z,100196.38
2022-12-23T11:01:14.979Z,100205.88
2022-12-23T11:03:53.573Z,100211.94
2022-12-23T11:06:22.409Z,100206.38
2022-12-23T11:08:51.218Z,100205.16
2022-12-23T11:11:19.329Z,100204.19
2022-12-23T11:13:47.808Z,100202.28
2022-12-23T11:16:23.325Z,100205.53
2022-12-23T11:18:59.004Z,100216.75
2022-12-23T11:21:27.587Z,100206.50
2022-12-23T11:24:17.848Z,100217.84
2022-12-23T11:26:48.345Z,100203.56
2022-12-23T11:29:23.954Z,100206.31
2022-12-23T11:31:52.630Z,100200.88
2022-12-23T11:34:23.889Z,100199.81
2022-12-23T11:37:00.232Z,100199.72
2022-12-23T11:39:33.875Z,100202.59
2022-12-23T11:42:08.808Z,100194.69
2022-12-23T11:44:42.680Z,100193.19
2022-12-23T11:47:30.787Z,100196.34
2022-12-23T11:50:01.697Z,100195.75
2022-12-23T11:52:30.848Z,100193.25
2022-12-23T11:55:00.619Z,100196.13
2022-12-23T11:57:37.623Z,100194.56
2022-12-23T12:00:09.255Z,100204.75
2022-12-23T12:02:40.632Z,100209.53
2022-12-23T12:05:22.610Z,100205.09
2022-12-23T12:07:52.464Z,100205.78
2022-12-23T12:10:22.746Z,100199.09
2022-12-23T12:12:54.858Z,100209.56
2022-12-23T12:15:30.523Z,100199.59
2022-12-23T12:17:58.884Z,100193.34
2022-12-23T12:20:32.616Z,100200.56
2022-12-23T12:23:03.329Z,100197.66
2022-12-23T12:25:41.354Z,100202.84
2022-12-23T12:28:14.458Z,100199.69
2022-12-23T12:30:47.720Z,100216.56
2022-12-23T12:33:20.460Z,100221.16
2022-12-23T12:35:54.253Z,100218.94
2022-12-23T12:38:26.564Z,100226.63
2022-12-23T12:40:58.949Z,100227.91
2022-12-23T12:43:30.173Z,100224.72
2022-12-23T12:46:09.729Z,100229.63
2022-12-23T12:48:45.989Z,100225.56
2022-12-23T12:51:22.098Z,100222.28
2022-12-23T12:54:05.656Z,100215.19
2022-12-23T12:56:39.810Z,100212.81
2022-12-23T12:59:09.485Z,100209.59
2022-12-23T13:01:46.377Z,100202.00
2022-12-23T13:04:49.907Z,100202.66
2022-12-23T13:07:26.626Z,100198.78
2022-12-23T13:10:02.671Z,100190.47
2022-12-23T13:12:40.217Z,100181.34
2022-12-23T13:15:18.417Z,100167.25
2022-12-23T13:17:49.852Z,100171.56
2022-12-23T13:20:25.416Z,100166.31
2022-12-23T13:23:14.959Z,100164.91
2022-12-23T13:25:51.441Z,100154.75
2022-12-23T13:28:33.629Z,100147.13
2022-12-23T13:31:06.675Z,100142.38
2022-12-23T13:33:40.566Z,100142.09
2022-12-23T13:36:14.260Z,100148.16
2022-12-23T13:38:59.500Z,100148.66
2022-12-23T13:41:33.460Z,100152.78
2022-12-23T13:44:05.175Z,100157.69
2022-12-23T13:46:40.847Z,100164.34
2022-12-23T13:49:16.444Z,100171.06
2022-12-23T13:51:49.297Z,100179.41
2022-12-23T13:54:27.341Z,100179.00
2022-12-23T13:57:08.065Z,100175.81
2022-12-23T13:59:40.398Z,100175.31
2022-12-23T14:02:42.683Z,100169.44
2022-12-23T14:05:30.270Z,100173.44
2022-12-23T14:07:59.642Z,100176.44
2022-12-23T14:10:30.052Z,100165.09
2022-12-23T14:13:03.901Z,100171.66
2022-12-23T14:15:53.142Z,100180.97
2022-12-23T14:18:47.699Z,100176.91
2022-12-23T14:21:22.537Z,100173.66
2022-12-23T14:24:04.890Z,100174.00
2022-12-23T14:27:23.255Z,100168.19
2022-12-23T14:30:05.665Z,100179.41
2022-12-23T14:32:44.451Z,100176.38
2022-12-23T14:35:26.122Z,100170.69
2022-12-23T14:38:23.491Z,100172.13
2022-12-23T14:40:58.583Z,100177.00
2022-12-23T14:43:33.436Z,100171.34
2022-12-23T14:46:04.694Z,100176.22
2022-12-23T14:49:37.647Z,100180.25
2022-12-23T14:51:58.224Z,100202.03
2022-12-23T14:54:39.136Z,100206.81
2022-12-23T14:57:16.932Z,100206.97
2022-12-23T14:59:51.428Z,100203.81
2022-12-23T15:02:23.115Z,100204.13
2022-12-23T15:04:55.767Z,100206.25
2022-12-23T15:07:27.215Z,100209.31
2022-12-23T15:10:00.783Z,100198.97
2022-12-23T15:12:33.433Z,100202.03
2022-12-23T15:15:05.565Z,100205.97
2022-12-23T15:17:35.436Z,100203.66
2022-12-23T15:20:08.941Z,100195.13
2022-12-23T15:22:37.052Z,100202.50
2022-12-23T15:25:05.620Z,100195.75
2022-12-23T15:27:36.683Z,100204.00
2022-12-23T15:30:11.712Z,100198.91
2022-12-23T15:32:42.305Z,100200.03
2022-12-23T15:35:15.673Z,100189.50
2022-12-23T15:37:43.865Z,100192.22
2022-12-23T15:40:27.530Z,100199.38
2022-12-23T15:42:55.786Z,100192.34
2022-12-23T15:45:38.017Z,100201.25
2022-12-23T15:48:07.614Z,100201.25
2022-12-23T15:50:40.440Z,100210.91
2022-12-23T15:53:10.839Z,100207.25
2022-12-23T15:55:40.593Z,100206.28
2022-12-23T15:58:09.148Z,100214.31
2022-12-23T16:00:42.048Z,100214.34
2022-12-23T16:03:24.985Z,100207.38
2022-12-23T16:05:53.543Z,100205.69
2022-12-23T16:08:29.115Z,100194.31
2022-12-23T16:11:07.772Z,100203.31
2022-12-23T16:13:37.406Z,100201.84
2022-12-23T16:16:30.250Z,100194.09
2022-12-23T16:18:58.354Z,100189.03
2022-12-23T16:21:30.808Z,100183.91
2022-12-23T16:23:59.710Z,100193.81
2022-12-23T16:26:28.063Z,100188.69
2022-12-23T16:28:59.286Z,100189.69
2022-12-23T16:31:28.886Z,100182.78
2022-12-23T16:33:58.148Z,100183.84
2022-12-23T16:36:35.327Z,100186.63
2022-12-23T16:39:15.961Z,100184.09
2022-12-23T16:41:44.069Z,100171.81
2022-12-23T16:44:12.152Z,100170.19
2022-12-23T16:46:44.523Z,100179.16
2022-12-23T16:49:16.171Z,100174.78
2022-12-23T16:51:44.435Z,100164.34
2022-12-23T16:54:15.156Z,100167.97
2022-12-23T16:56:43.276Z,100164.53
2022-12-23T16:59:11.530Z,100165.47
2022-12-23T17:01:43.214Z,100163.81
2022-12-23T17:04:11.544Z,100167.38
2022-12-23T17:06:40.703Z,100171.88
2022-12-23T17:09:11.422Z,100162.25
2022-12-23T17:11:42.480Z,100166.75
2022-12-23T17:14:15.871Z,100169.44
2022-12-23T17:16:45.692Z,100171.28
2022-12-23T17:19:13.868Z,100165.22
2022-12-23T17:21:46.725Z,100166.22
2022-12-23T17:24:20.836Z,100173.38
2022-12-23T17:26:48.923Z,100169.94
2022-12-23T17:29:17.072Z,100172.69
2022-12-23T17:31:46.719Z,100167.56
2022-12-23T17:34:16.765Z,100165.84
2022-12-23T17:36:50.053Z,100165.03
2022-12-23T17:39:18.747Z,100166.81
2022-12-23T17:41:47.178Z,100153.63
2022-12-23T17:44:16.321Z,100166.09
2022-12-23T17:46:44.487Z,100157.31
2022-12-23T17:49:14.082Z,100157.38
2022-12-23T17:51:42.548Z,100164.47
2022-12-23T17:54:18.751Z,100164.53
2022-12-23T17:56:46.799Z,100167.19
2022-12-23T17:59:14.859Z,100169.91
2022-12-23T18:01:42.970Z,100171.69
2022-12-23T18:04:11.081Z,100177.88
2022-12-23T18:06:40.647Z,100182.31
2022-12-23T18:09:08.729Z,100186.75
2022-12-23T18:11:41.203Z,100172.69
2022-12-23T18:14:12.832Z,100172.75
2022-12-23T18:16:40.982Z,100176.38
2022-12-23T18:19:14.904Z,100175.63
2022-12-23T18:21:44.494Z,100183.66
2022-12-23T18:24:12.556Z,100187.22
2022-12-23T18:26:40.632Z,100182.91
2022-12-23T18:29:08.739Z,100184.75
2022-12-23T18:31:37.193Z,100172.44
2022-12-23T18:34:05.313Z,100176.03
2022-12-23T18:36:34.341Z,100179.59
2022-12-23T18:39:03.912Z,100175.16
2022-12-23T18:41:32.066Z,100162.81
2022-12-23T18:44:00.157Z,100163.63
2022-12-23T18:46:28.252Z,100169.81
2022-12-23T18:48:56.329Z,100175.06
2022-12-23T18:51:24.421Z,100175.00
2022-12-23T18:53:52.466Z,100178.47
2022-12-23T18:56:22.700Z,100177.44
2022-12-23T18:58:50.792Z,100172.84
2022-12-23T19:01:19.356Z,100178.09
2022-12-23T19:03:47.586Z,100181.50
2022-12-23T19:06:16.714Z,100179.66
2022-12-23T19:08:45.292Z,100178.66
2022-12-23T19:11:14.800Z,100167.06
2022-12-23T19:13:44.702Z,100166.09
2022-12-23T19:16:14.085Z,100180.16
2022-12-23T19:18:42.359Z,100177.47
2022-12-23T19:21:10.450Z,100179.16
2022-12-23T19:23:38.595Z,100178.19
2022-12-23T19:26:06.868Z,100176.34
2022-12-23T19:28:35.041Z,100177.97
2022-12-23T19:31:09.505Z,100172.59
2022-12-23T19:33:38.180Z,100174.28
2022-12-23T19:36:10.740Z,100187.44
2022-12-23T19:38:39.025Z,100194.50
2022-12-23T19:41:07.437Z,100191.84
2022-12-23T19:43:36.033Z,100192.78
2022-12-23T19:46:06.107Z,100197.28
2022-12-23T19:48:35.752Z,100198.19
2022-12-23T19:51:07.576Z,100204.44
2022-12-23T19:53:35.912Z,100200.00
2022-12-23T19:56:08.069Z,100208.91
2022-12-23T19:58:38.754Z,100208.03
2022-12-23T20:01:09.563Z,100202.72
2022-12-23T20:03:39.276Z,100199.19
2022-12-23T20:06:08.554Z,100198.28
2022-12-23T20:08:36.639Z,100201.72
2022-12-23T20:11:07.289Z,100199.88
2022-12-23T20:13:35.892Z,100203.34
2022-12-23T20:16:05.314Z,100208.53
2022-12-23T20:18:33.575Z,100203.16
2022-12-23T20:21:03.221Z,100208.47
2022-12-23T20:23:32.191Z,100207.53
2022-12-23T20:26:00.314Z,100217.25
2022-12-23T20:28:28.618Z,100216.38
2022-12-23T20:31:01.757Z,100212.00
2022-12-23T20:33:29.843Z,100212.06
2022-12-23T20:35:58.053Z,100213.84
2022-12-23T20:38:27.547Z,100199.75
2022-12-23T20:40:55.668Z,100191.84
2022-12-23T20:43:23.752Z,100200.72
2022-12-23T20:45:52.512Z,100202.47
2022-12-23T20:48:21.734Z,100197.16
2022-12-23T20:50:50.112Z,100203.28
2022-12-23T20:53:18.408Z,100212.97
2022-12-23T20:55:47.860Z,100204.94
2022-12-23T20:58:33.587Z,100208.47
2022-12-23T21:01:09.093Z,100204.03
2022-12-23T21:03:37.424Z,100203.97
2022-12-23T21:06:06.754Z,100210.19
2022-12-23T21:08:35.004Z,100207.53
2022-12-23T21:11:05.769Z,100211.06
2022-12-23T21:13:35.415Z,100207.53
2022-12-23T21:16:04.260Z,100198.72
2022-12-23T21:18:32.680Z,100196.13
2022-12-23T21:21:01.413Z,100205.88
2022-12-23T21:23:30.163Z,100197.09
2022-12-23T21:26:13.671Z,100199.81
2022-12-23T21:28:43.254Z,100197.16
2022-12-23T21:31:11.511Z,100202.59
2022-12-23T21:33:41.356Z,100201.72
2022-12-23T21:36:13.738Z,100207.91
2022-12-23T21:38:46.354Z,100221.19
2022-12-23T21:41:17.517Z,100215.06
2022-12-23T21:43:45.770Z,100217.72
2022-12-23T21:46:16.156Z,100212.47
2022-12-23T21:48:44.754Z,100214.31
2022-12-23T21:51:15.274Z,100210.75
2022-12-23T21:53:44.166Z,100215.06
2022-12-23T21:56:14.255Z,100213.22
2022-12-23T21:58:44.039Z,100216.56
2022-12-23T22:01:14.855Z,100227.00
2022-12-23T22:03:43.115Z,100221.56
2022-12-23T22:06:16.120Z,100229.34
2022-12-23T22:08:44.625Z,100227.41
2022-12-23T22:11:15.053Z,100225.44
2022-12-23T22:13:45.228Z,100230.59
2022-12-23T22:16:15.075Z,100236.63
2022-12-23T22:18:44.246Z,100235.59
2022-12-23T22:21:14.035Z,100232.75
2022-12-23T22:23:42.724Z,100228.28
2022-12-23T22:26:17.463Z,100228.22
2022-12-23T22:28:49.761Z,100232.59
2022-12-23T22:31:21.044Z,100235.19
2022-12-23T22:33:49.593Z,100235.13
2022-12-23T22:36:18.547Z,100229.75
2022-12-23T22:38:54.036Z,100238.59
2022-12-23T22:41:22.595Z,100233.28
2022-12-23T22:43:52.608Z,100238.53
2022-12-23T22:46:21.437Z,100243.84
2022-12-23T22:48:49.747Z,100244.72
2022-12-23T22:51:19.635Z,100244.66
2022-12-23T22:53:48.714Z,100251.75
2022-12-23T22:56:18.649Z,100261.47
2022-12-23T22:58:47.178Z,100251.69
2022-12-23T23:01:21.450Z,100260.53
2022-12-23T23:03:51.051Z,100251.69
2022-12-23T23:06:19.378Z,100262.31
2022-12-23T23:08:47.460Z,100254.34
2022-12-23T23:11:15.530Z,100257.00
2022-12-23T23:13:43.667Z,100257.94
2022-12-23T23:16:11.771Z,100255.31
2022-12-23T23:18:41.369Z,100261.47
2022-12-23T23:21:10.394Z,100259.66
2022-12-23T23:23:38.469Z,100268.44
2022-12-23T23:26:08.684Z,100256.81
2022-12-23T23:28:36.988Z,100259.44
2022-12-23T23:31:39.655Z,100256.66
2022-12-23T23:33:54.493Z,100259.22
2022-12-23T23:36:22.656Z,100261.81
2022-12-23T23:38:50.774Z,100277.59
2022-12-23T23:41:22.788Z,100273.94
2022-12-23T23:43:51.655Z,100272.06
2022-12-23T23:46:19.911Z,100257.84
2022-12-23T23:48:48.897Z,100261.28
2022-12-23T23:51:18.346Z,100260.38
2022-12-23T23:53:46.384Z,100255.03
2022-12-23T23:56:14.606Z,100257.84
2022-12-23T23:58:42.657Z,100263.25
